6 de julio de 2022

Hora Código Tiempo Temp. Visibilidad Cielo nuboso Viento METAR/SPECI
6:30 p. m.
V
75 °F 6¼ mi+ - 180° 180° 15 kt METAR HUEN 061530Z 18015KT CAVOK 24/15 Q1017.7 A30.05 886.3 26.17
6:00 p. m.
V
75 °F 6¼ mi+ - 170° 170° 12 kt METAR HUEN 061500Z 17012KT CAVOK 24/15 Q1017.8 A30.05 886.4 26.17
5:30 p. m.
V
77 °F 6¼ mi+ - 170° 170° 14 kt METAR HUEN 061430Z 17014KT CAVOK 25/15 Q1017
5:00 p. m.
V
79 °F 6¼ mi+ - 180° 180° 18 kt METAR HUEN 061400Z 18018KT CAVOK 26/16 Q1018
4:30 p. m.
V
79 °F 6¼ mi+ - 180° 180° 18 kt METAR HUEN 061330Z 18018KT 9999 FEW028 26/16 Q1018
4:00 p. m.
V
79 °F 6¼ mi+ - 190° 190° 18 kt METAR HUEN 061300Z 19018KT 9999 FEW028 FEW030CB 26/16 Q1018
3:30 p. m.
L
79 °F 0 mi - 190° 190° 18 kt METAR HUEN 061230Z 19018KT FEW028 FEW030CB 26/16 Q1018
3:00 p. m.
V
77 °F 6¼ mi+ - 190° 190° 18 kt METAR HUEN 061200Z 19018KT 9999 FEW028 FEW030CB 25/16 Q1018
2:30 p. m.
V
79 °F 6¼ mi+ - 190° 190° 22 kt METAR HUEN 061130Z 19022KT 9999 FEW027 FEW030CB 26/16 Q1018
2:00 p. m.
L
81 °F 0 mi - 200° 200° 18 kt METAR HUEN 061100Z 20018KT FEW027 FEW030CB 27/17 Q1018
1:00 p. m.
V
79 °F 6¼ mi+ - 230° 230° 17 kt METAR HUEN 061000Z 23017KT 9999 FEW027 FEW030CB 26/17 Q1019
12:30 p. m.
V
79 °F 6¼ mi+ - 220° 220° 13 kt METAR HUEN 060930Z 22013KT 9999 FEW026 FEW028CB 26/17 Q1020
12:00 p. m.
L
77 °F 0 mi - 220° 220° 13 kt METAR HUEN 060900Z 22013KT FEW026 FEW028CB 25/18 Q1020
11:30 a. m.
L
77 °F 0 mi - 260° 260° 12 kt METAR HUEN 060830Z 26012KT FEW026 FEW028CB 25/19 Q1020
11:00 a. m.
L
75 °F 0 mi - 230° 230° 13 kt METAR HUEN 060800Z 23013KT FEW026 24/19 Q1020
10:30 a. m.
L
73 °F 0 mi - 250° 250° 10 kt METAR HUEN 060730Z 25010KT FEW025 23/19 Q1020
10:00 a. m.
L
73 °F 0 mi - 290° 290° 6 kt METAR HUEN 060700Z 29006KT FEW025 23/18 Q1020
9:30 a. m.
L
72 °F 0 mi - 290° 290° 6 kt METAR HUEN 060630Z 29006KT FEW025 22/17 Q1020
9:00 a. m.
L
70 °F 0 mi - 250° 250° 5 kt METAR HUEN 060600Z 25005KT FEW025 21/15 Q1020
8:30 a. m.
L
68 °F 0 mi - 290° 290° 2 kt METAR HUEN 060530Z 29002KT FEW024 FEW026CB 20/17 Q1020
8:00 a. m.
L
66 °F 0 mi - 320° 320° 3 kt METAR HUEN 060500Z 32003KT FEW024 FEW026CB 19/17 Q1019.9 A30.12 888.3 26.23 NOSIG
7:30 a. m.
L
64 °F 0 mi - 360° 360° 3 kt METAR HUEN 060430Z 36003KT FEW024 FEW026CB 18/16 Q1019.6 A30.11 888.0 26.22 NOSIG
7:00 a. m.
V
64 °F 6¼ mi+ - 360° 360° 3 kt METAR HUEN 060400Z 36003KT CAVOK 18/16 Q1019.1 A30.09 887.5 26.21 NOSIG
6:00 a. m.
V
64 °F 6¼ mi+ - 360° 360° 4 kt METAR HUEN 060300Z 36004KT CAVOK 18/17 Q1018.4 A30.07 886.9 26.19 NOSIG
5:30 a. m.
V
66 °F 6¼ mi+ - 350° 350° 4 kt METAR HUEN 060230Z 35004KT CAVOK 19/17 Q1018.2 A30.06 886.7 26.18 NOSIG
5:00 a. m.
V
64 °F 6¼ mi+ - 020° 020° 4 kt METAR HUEN 060200Z 02004KT CAVOK 18/17 Q1018.0 A30.06 886.5 26.18 NOSIG
4:00 a. m.
V
66 °F 6¼ mi+ - 320° 320° 2 kt METAR HUEN 060100Z 32002KT CAVOK 19/17 Q1017.4 A30.04 886.0 26.16 NOSIG
3:00 a. m.
V
66 °F 6¼ mi+ - 310° 310° 4 kt METAR HUEN 060000Z 31004KT CAVOK 19/17 Q1017.2 A30.03 885.8 26.16 NOSIG
2:30 a. m.
V
68 °F 6¼ mi+ - 310° 310° 5 kt METAR HUEN 052330Z 31005KT CAVOK 20/18 Q1017.4 A30.04 886.0 26.16 NOSIG
2:00 a. m.
V
68 °F 6¼ mi+ - 320° 320° 3 kt METAR HUEN 052300Z 32003KT CAVOK 20/18 Q1018.5 A30.04 886.1 26.16 NOSIG
1:30 a. m.
V
68 °F 6¼ mi+ - 320° 320° 2 kt METAR HUEN 052230Z 32002KT CAVOK 20/18 Q1018.0 A30.06 886.5 26.18 NOSIG
1:00 a. m.
V
70 °F 6¼ mi+ - 160° 160° 4 kt METAR HUEN 052200Z 16004KT CAVOK 21/18 Q1018.2 A30.06 886.7 26.18 NOSIG
12:30 a. m.
V
72 °F 6¼ mi+ - 140° 140° 1 kt METAR HUEN 052130Z 14001KT CAVOK 22/16 Q1018.4 A30.07 886.9 26.19 NOSIG
12:00 a. m.
V
72 °F 6¼ mi+ - 140° 140° 4 kt METAR HUEN 052100Z 14004KT CAVOK 22/16 Q1018.7 A30.08 887.2 26.20 NOSIG

5 de julio de 2022

Hora Código Tiempo Temp. Visibilidad Cielo nuboso Viento METAR/SPECI
11:30 p. m.
V
72 °F 6¼ mi+ - 150° 150° 5 kt METAR HUEN 052030Z 15005KT CAVOK 22/16 Q1018.9 A30.09 887.4 26.20 NOSIG
11:00 p. m.
V
72 °F 6¼ mi+ - 140° 140° 5 kt METAR HUEN 052000Z 14005KT CAVOK 22/15 Q1019.2 A30.08 887.6 26.21 NOSIG
10:30 p. m.
V
72 °F 6¼ mi+ - 150° 150° 8 kt METAR HUEN 051930Z 15008KT CAVOK 22/16 Q1019.2 A30.08 887.6 26.21 NOSIG
10:00 p. m.
V
72 °F 6¼ mi+ - 140° 140° 8 kt METAR HUEN 051900Z 14008KT CAVOK 22/16 Q1019.2 A30.08 887.6 26.21 NOSIG
9:30 p. m.
V
72 °F 6¼ mi+ - 150° 150° 10 kt METAR HUEN 051830Z 15010KT CAVOK 22/16 Q1018.8 A30.08 887.3 26.20 NOSIG
8:30 p. m.
V
72 °F 6¼ mi+ - 160° 160° 12 kt METAR HUEN 051730Z 16012KT CAVOK 22/16 Q1018.1 A30.06 886.6 26.18 NOSIG
8:00 p. m.
V
72 °F 6¼ mi+ - 160° 160° 12 kt METAR HUEN 051700Z 16012KT CAVOK 22/16 Q1018.1 A30.06 886.6 26.18 NOSIG
7:30 p. m.
V
72 °F 6¼ mi+ - 150° 150° 11 kt METAR HUEN 051630Z 15011KT CAVOK 22/15 Q1018.0 A30.06 886.5 26.18 NOSIG
7:00 p. m.
V
73 °F 6¼ mi+ - 150° 150° 10 kt METAR HUEN 051600Z 15010KT CAVOK 23/16 Q1018.0 A30.06 886.5 26.18 NOSIG
6:30 p. m.
V
73 °F 6¼ mi+ - 160° 160° 11 kt METAR HUEN 051530Z 16011KT 9999 FEW024 FEW026CB 23/14 Q1017.8 A30.05 886.4 26.17 NOSIG
6:00 p. m.
V
75 °F 6¼ mi+ - 160° 160° 10 kt METAR HUEN 051500Z 16010KT CAVOK 24/16 Q1017.8 A30.05 886.4 26.17 NOSIG
5:30 p. m.
V
75 °F 6¼ mi+ - 160° 160° 10 kt METAR HUEN 051430Z 16010KT 9999 FEW024 24/17 Q1018.0 A30.06 886.5 26.18 NOSIG
5:00 p. m.
V
77 °F 6¼ mi+ - Var 000° 0 kt METAR HUEN 051400Z16010KT 9999 FEW024 FEW026CB 25/16 Q1018
4:30 p. m.
V
77 °F 6¼ mi+ - 170° 170° 12 kt METAR HUEN 051330Z 17012KT 9999 FEW024 FEW026CB 25/17 Q1018
4:00 p. m.
V
79 °F 6¼ mi+ - 190° 190° 14 kt METAR HUEN 051300Z 19014KT 9999 FEW024CB FEW026CB 26/15 Q1018
3:30 p. m.
V
79 °F 6¼ mi+ - 160° 160° 12 kt METAR HUEN 051230Z 16012KT 9999 FEW024 FEW026CB 26/16 Q1018
3:00 p. m.
V
79 °F 6¼ mi+ - 180° 180° 12 kt METAR HUEN 051200Z 18012KT 9999 FEW024 FEW026CB 26/15 Q1019
2:30 p. m.
V
79 °F 6¼ mi+ - 180° 180° 13 kt METAR HUEN 051130Z 18013KT 9999 FEW024 FEW026CB 26/16 Q1019
2:00 p. m.
V
79 °F 6¼ mi+ - 200° 200° 14 kt METAR HUEN 051100Z 20014KT 9999 FEW024 FEW026CB 26/14 Q1019
1:30 p. m.
V
79 °F 6¼ mi+ - 200° 200° 15 kt METAR HUEN 051030Z 20015KT 9999 FEW024 FEW026CB 26/16 Q1019
1:00 p. m.
V
79 °F 6¼ mi+ - 200° 200° 15 kt METAR HUEN 051000Z 20015KT 9999 FEW024 FEW026CB 26/16 Q1020
12:30 p. m.
V
77 °F 6¼ mi+ - 220° 220° 5 kt METAR HUEN 050930Z 22005KT 9999 FEW023 FEW025CB 25/19 Q1020
12:00 p. m.
V
77 °F 6¼ mi+ - 220° 220° 7 kt METAR HUEN 050900Z 22007KT 9999 FEW023 FEW025CB 25/19 Q1020
11:00 a. m.
V
75 °F 6¼ mi+ - 240° 240° 7 kt METAR HUEN 050800Z 24007KT 9999 FEW022 FEW024CB 24/19 Q1020 HUKA 050800Z 18004KT 9000 SCT021 FEW023CB 25/17 Q/////
10:30 a. m.
V
75 °F 6¼ mi+ - 240° 240° 8 kt METAR HUEN 050730Z 24008KT 9999 FEW022 FEW024CB 24/18 Q1020
10:00 a. m.
V
73 °F 6¼ mi+ - 270° 270° 4 kt METAR HUEN 050700Z 27004KT 9999 FEW021 FEW023CB 23/18 Q1020
9:30 a. m.
V
72 °F 6¼ mi+ - 270° 270° 4 kt METAR HUEN 050630Z 27004KT 9999 FEW020 FEW022CB 22/18 Q1020
8:30 a. m.
V
68 °F 6¼ mi+ - 290° 290° 6 kt METAR HUEN 050530Z 29006KT 9999 FEW028 FEW020CB 20/18 Q1020
8:00 a. m.
V
64 °F 6¼ mi+ - 280° 280° 3 kt METAR HUEN 050500Z 28003KT 9999 FEW017 FEW019CB 18/16 Q1019
7:30 a. m.
V
64 °F 6¼ mi+ - 290° 290° 6 kt METAR HUEN 050430Z 29006KT 9999 FEW017 FEW019CB 18/16 Q1019
7:00 a. m.
V
64 °F 6¼ mi+ - Var 000° 0 kt METAR HUEN 050400Z 00000KT CAVOK 18/16 Q1019
6:30 a. m.
V
64 °F 6¼ mi+ - 360° 360° 34 kt METAR HUEN 050330Z 360034KT CAVOK 18/16 Q1018
2:00 a. m.
V
68 °F 6¼ mi+ - 140° 140° 4 kt METAR HUEN 042300Z 14004KT CAVOK 20/15 Q1018
12:30 a. m.
V
70 °F 6¼ mi+ - 170° 170° 6 kt METAR HUEN 042130Z 17006KT CAVOK 21/14 Q1018
12:00 a. m.
V
70 °F 6¼ mi+ - 170° 170° 6 kt METAR HUEN 042100Z 17006KT CAVOK 21/14 Q1019

4 de julio de 2022

Hora Código Tiempo Temp. Visibilidad Cielo nuboso Viento METAR/SPECI
11:30 p. m.
V
72 °F 6¼ mi+ - 170° 170° 6 kt METAR HUEN 042030Z 17006KT CAVOK 22/15 Q1019
11:00 p. m.
V
72 °F 6¼ mi+ - 160° 160° 8 kt METAR HUEN 042000Z 16008KT CAVOK 22/14 Q1019
10:30 p. m.
V
72 °F 6¼ mi+ - 170° 170° 7 kt METAR HUEN 041930Z 17007KT CAVOK 22/14 Q1019
10:00 p. m.
V
72 °F 6¼ mi+ - 170° 170° 7 kt METAR HUEN 041900Z 17007KT CAVOK 22/14 Q1019
9:00 p. m.
V
72 °F 6¼ mi+ - 170° 170° 9 kt METAR HUEN 041800Z 17009KT CAVOK 22/14 Q1019
8:30 p. m.
V
73 °F 6¼ mi+ - 170° 170° 10 kt METAR HUEN 041730Z 17010KT CAVOK 23/14 Q1018
8:00 p. m.
V
73 °F 6¼ mi+ - 170° 170° 6 kt METAR HUEN 041700Z 17006KT CAVOK 23/14 Q1018
7:30 p. m.
V
73 °F 6¼ mi+ - 170° 170° 10 kt METAR HUEN 041630Z 17010KT CAVOK 23/14 Q1018
7:00 p. m.
V
75 °F 6¼ mi+ - 170° 170° 16 kt METAR HUEN 041600Z 17016KT CAVOK 24/15 Q1018
6:30 p. m.
V
75 °F 6¼ mi+ - 170° 170° 14 kt METAR HUEN 041530Z 17014KT CAVOK 24/14 Q1018
Datos más antiguos

Descarga nuestra aplicación

Acceso fácil a todo el tiempo de la aviación en tu teléfono móvil y tableta.
Con muchas funciones no disponibles en el sitio web, como la compatibilidad sin conexión y una lista personal de aeropuertos.

Nosotros y terceros seguimos tu comportamiento en Internet en nuestro sitio web con cookies. Si continúas, asumimos que estás de acuerdo con nuestra política de cookies. Más información